Time;durP1;ratioP1;P1;durP2;ratioP2;P2;SDS_P1;SDS_P2;PMS_P1;PMS_P2;Temp;Humidity;BMP_temperature;BMP_pressure;BME280_temperature;BME280_humidity;BME280_pressure;Samples;Min_cycle;Max_cycle;Signal;HPM_P1;HPM_P2
2023/11/13 00:02:36;;;;;;;9.77;4.80;;;;;;;3.76;100.00;100642.56;6268945;28;20049;-74
2023/11/13 00:05:38;;;;;;;6.47;3.83;;;;;;;3.66;100.00;100631.56;6277544;28;20056;-73
2023/11/13 00:08:39;;;;;;;9.90;5.47;;;;;;;3.58;100.00;100611.88;6277921;28;20060;-74
2023/11/13 00:11:41;;;;;;;8.45;4.15;;;;;;;3.55;100.00;100616.28;6278295;28;20115;-73
2023/11/13 00:14:44;;;;;;;7.35;4.38;;;;;;;3.55;100.00;100615.41;6274656;28;20349;-74
2023/11/13 00:17:47;;;;;;;8.23;4.30;;;;;;;3.49;100.00;100598.22;6262222;28;20059;-74
2023/11/13 00:20:49;;;;;;;9.75;4.88;;;;;;;3.49;100.00;100600.81;6277738;28;20041;-74
2023/11/13 00:23:50;;;;;;;9.27;3.72;;;;;;;3.51;100.00;100621.59;6277759;28;20045;-73
2023/11/13 00:26:51;;;;;;;7.47;4.30;;;;;;;3.49;100.00;100623.34;6277135;28;20052;-74
2023/11/13 00:29:55;;;;;;;7.00;3.67;;;;;;;3.51;100.00;100611.19;6277921;28;20457;-74
2023/11/13 00:32:56;;;;;;;8.13;4.20;;;;;;;3.44;100.00;100610.50;6269836;28;20054;-73
2023/11/13 00:35:57;;;;;;;6.47;3.65;;;;;;;3.45;100.00;100607.03;6263242;28;20072;-73
2023/11/13 00:38:59;;;;;;;7.55;4.07;;;;;;;3.39;100.00;100608.91;6261215;28;20046;-73
2023/11/13 00:42:00;;;;;;;7.85;4.57;;;;;;;3.35;100.00;100597.75;6268745;28;20049;-74
2023/11/13 00:45:04;;;;;;;8.40;4.13;;;;;;;3.30;100.00;100597.00;6271748;28;20053;-73
2023/11/13 00:48:05;;;;;;;7.95;4.25;;;;;;;3.30;100.00;100608.25;6271708;28;20056;-73
2023/11/13 00:51:08;;;;;;;6.82;3.60;;;;;;;3.29;100.00;100605.72;6269141;28;20044;-73
2023/11/13 00:54:10;;;;;;;8.85;4.13;;;;;;;3.29;100.00;100621.28;6268599;28;20056;-73
2023/11/13 00:57:12;;;;;;;11.93;3.90;;;;;;;3.29;100.00;100631.66;6277242;28;20048;-73
2023/11/13 01:00:15;;;;;;;5.82;3.28;;;;;;;3.30;100.00;100635.97;6276810;28;20045;-73
2023/11/13 01:03:17;;;;;;;5.95;3.42;;;;;;;3.32;100.00;100644.59;6272512;28;20049;-73
2023/11/13 01:06:19;;;;;;;7.22;3.60;;;;;;;3.30;100.00;100631.63;6268068;28;20052;-73
2023/11/13 01:09:20;;;;;;;7.43;4.53;;;;;;;3.22;100.00;100633.56;6276776;28;20338;-73
2023/11/13 01:12:22;;;;;;;5.32;3.17;;;;;;;3.23;100.00;100637.03;6276588;28;20055;-73
2023/11/13 01:15:25;;;;;;;7.47;3.03;;;;;;;3.22;100.00;100619.72;6268930;28;20053;-74
2023/11/13 01:18:26;;;;;;;5.72;3.60;;;;;;;3.20;100.00;100608.53;6268285;28;20049;-73
2023/11/13 01:21:28;;;;;;;5.35;3.15;;;;;;;3.18;100.00;100612.91;6276341;28;20045;-73
2023/11/13 01:24:29;;;;;;;5.03;3.15;;;;;;;3.18;100.00;100621.56;6276465;28;20055;-73
2023/11/13 01:27:31;;;;;;;7.53;3.17;;;;;;;3.15;100.00;100623.38;6276250;28;20056;-73
2023/11/13 01:30:34;;;;;;;5.32;3.17;;;;;;;3.14;100.00;100617.34;6276376;28;20052;-73
2023/11/13 01:33:36;;;;;;;5.93;3.47;;;;;;;3.16;100.00;100623.34;6276017;28;20045;-73
2023/11/13 01:36:37;;;;;;;5.40;2.53;;;;;;;3.19;100.00;100620.66;6275443;28;20052;-73
2023/11/13 01:39:39;;;;;;;4.00;2.80;;;;;;;3.22;100.00;100599.78;6275744;28;20045;-73
2023/11/13 01:42:40;;;;;;;4.00;2.70;;;;;;;3.22;100.00;100588.56;6276031;28;20048;-73
2023/11/13 01:45:43;;;;;;;5.85;3.13;;;;;;;3.22;100.00;100580.78;6275866;28;20057;-73
2023/11/13 01:48:44;;;;;;;6.88;3.45;;;;;;;3.25;100.00;100594.53;6241937;22;20054;-77
2023/11/13 01:51:47;;;;;;;5.50;2.72;;;;;;;3.28;100.00;100601.41;6208614;28;20355;-77
2023/11/13 01:54:48;;;;;;;7.53;3.15;;;;;;;3.31;100.00;100601.31;6226595;28;20050;-77
2023/11/13 01:57:50;;;;;;;8.20;3.35;;;;;;;3.30;100.00;100610.00;6204931;28;20058;-77
2023/11/13 02:00:53;;;;;;;5.97;3.33;;;;;;;3.33;100.00;100604.75;6201938;28;20050;-77
2023/11/13 02:03:55;;;;;;;6.10;3.03;;;;;;;3.35;100.00;100595.16;6201693;28;20043;-77
2023/11/13 02:06:56;;;;;;;5.72;3.22;;;;;;;3.36;100.00;100586.50;6201664;28;20050;-77
2023/11/13 02:09:58;;;;;;;6.68;2.80;;;;;;;3.33;100.00;100586.56;6201698;28;20371;-77
2023/11/13 02:12:59;;;;;;;6.95;2.78;;;;;;;3.34;100.00;100590.00;6201804;28;20065;-77
2023/11/13 02:16:02;;;;;;;4.43;2.90;;;;;;;3.30;100.00;100594.41;6201507;28;20050;-77
2023/11/13 02:19:03;;;;;;;6.78;3.65;;;;;;;3.33;100.00;100601.28;6201813;28;20046;-78
2023/11/13 02:22:05;;;;;;;3.97;2.65;;;;;;;3.36;100.00;100601.19;6201494;28;20447;-77
2023/11/13 02:25:13;;;;;;;5.47;2.95;;;;;;;3.44;100.00;100581.06;6201891;28;20051;-77
2023/11/13 02:28:15;;;;;;;6.43;2.95;;;;;;;3.51;100.00;100567.88;6201648;28;20465;-77
2023/11/13 02:31:16;;;;;;;4.53;2.50;;;;;;;3.47;100.00;100571.44;6201737;28;20053;-77
2023/11/13 02:34:18;;;;;;;4.43;2.47;;;;;;;3.51;100.00;100562.69;6201495;28;20054;-77
2023/11/13 02:37:19;;;;;;;9.20;3.30;;;;;;;3.49;100.00;100556.66;6220228;28;20461;-77
2023/11/13 02:40:22;;;;;;;4.57;2.65;;;;;;;3.55;100.00;100555.66;6236528;28;20046;-77
2023/11/13 02:43:23;;;;;;;7.45;2.80;;;;;;;3.63;100.00;100545.03;6241889;28;20057;-77
2023/11/13 02:46:25;;;;;;;6.93;3.70;;;;;;;3.71;100.00;100540.50;6249956;28;20054;-78
2023/11/13 02:49:26;;;;;;;6.07;3.40;;;;;;;3.72;100.00;100537.84;6252839;28;20088;-77
2023/11/13 02:52:27;;;;;;;4.55;2.60;;;;;;;3.71;100.00;100538.72;6255274;28;20045;-77
2023/11/13 02:55:30;;;;;;;5.85;3.17;;;;;;;3.69;100.00;100537.94;6255236;28;20056;-77
2023/11/13 02:58:32;;;;;;;7.25;2.67;;;;;;;3.67;100.00;100544.06;6240878;28;20392;-77
2023/11/13 03:01:33;;;;;;;4.00;2.47;;;;;;;3.68;100.00;100540.56;6252905;28;20053;-77
2023/11/13 03:04:34;;;;;;;4.00;2.35;;;;;;;3.65;100.00;100551.06;6255192;28;20057;-78
2023/11/13 03:07:36;;;;;;;4.47;2.67;;;;;;;3.62;100.00;100557.19;6254658;28;20060;-77
2023/11/13 03:10:39;;;;;;;4.05;2.50;;;;;;;3.55;100.00;100556.53;6254737;28;20354;-77
2023/11/13 03:13:41;;;;;;;6.68;3.20;;;;;;;3.55;100.00;100564.31;6254947;28;20060;-77
2023/11/13 03:16:42;;;;;;;10.80;3.00;;;;;;;3.56;100.00;100570.34;6246807;28;20072;-78
2023/11/13 03:19:43;;;;;;;3.65;2.55;;;;;;;3.56;100.00;100572.94;6246357;28;20053;-77
2023/11/13 03:22:45;;;;;;;5.75;2.60;;;;;;;3.56;100.00;100580.75;6254333;28;20057;-77
2023/11/13 03:25:47;;;;;;;4.97;2.22;;;;;;;3.55;100.00;100574.69;6254710;28;20056;-77
2023/11/13 03:28:49;;;;;;;8.45;3.28;;;;;;;3.51;100.00;100578.28;6253537;28;20045;-77
2023/11/13 03:31:50;;;;;;;4.07;2.35;;;;;;;3.50;100.00;100586.97;6245980;28;20045;-77
2023/11/13 03:34:52;;;;;;;4.57;2.35;;;;;;;3.50;100.00;100580.94;6253535;28;20049;-77
2023/11/13 03:37:53;;;;;;;4.40;2.88;;;;;;;3.48;100.00;100580.94;6254206;28;20069;-77
2023/11/13 03:40:56;;;;;;;5.20;2.63;;;;;;;3.43;100.00;100567.22;6254237;28;20052;-77
2023/11/13 03:44:00;;;;;;;5.05;2.72;;;;;;;3.40;100.00;100571.66;6254339;28;20463;-77
2023/11/13 03:47:02;;;;;;;3.90;2.80;;;;;;;3.36;100.00;100567.44;6254287;28;20057;-77
2023/11/13 03:50:04;;;;;;;13.25;3.45;;;;;;;3.29;100.00;100559.81;6253786;28;20053;-77
2023/11/13 03:53:06;;;;;;;8.00;2.65;;;;;;;3.27;100.00;100564.22;6253865;28;20056;-77
2023/11/13 03:56:09;;;;;;;6.05;2.80;;;;;;;3.21;100.00;100561.75;6253692;28;20061;-77
2023/11/13 03:59:11;;;;;;;6.80;2.80;;;;;;;3.20;100.00;100567.00;6253739;28;20060;-77
2023/11/13 04:02:12;;;;;;;5.65;3.30;;;;;;;3.21;100.00;100573.88;6252453;28;20053;-77
2023/11/13 04:05:14;;;;;;;4.22;2.47;;;;;;;3.16;100.00;100578.34;6253789;28;20049;-77
2023/11/13 04:08:15;;;;;;;6.63;2.58;;;;;;;3.14;100.00;100570.59;6253118;28;20045;-77
2023/11/13 04:11:18;;;;;;;5.65;2.67;;;;;;;3.12;100.00;100566.34;6253618;28;20052;-77
2023/11/13 04:14:19;;;;;;;4.82;2.45;;;;;;;3.10;100.00;100549.94;6253182;28;20052;-78
2023/11/13 04:17:21;;;;;;;5.75;2.90;;;;;;;3.07;100.00;100544.84;6253483;28;20057;-78
2023/11/13 04:20:23;;;;;;;5.28;2.80;;;;;;;3.02;100.00;100542.34;6253201;28;20042;-78
2023/11/13 04:23:25;;;;;;;3.22;2.60;;;;;;;3.00;100.00;100542.41;6253025;28;20049;-77
2023/11/13 04:26:28;;;;;;;5.20;2.67;;;;;;;3.01;100.00;100525.94;6253195;28;20041;-77
2023/11/13 04:29:30;;;;;;;4.38;2.60;;;;;;;2.98;100.00;100514.75;6252947;28;20050;-78
2023/11/13 04:32:31;;;;;;;6.18;3.00;;;;;;;2.95;100.00;100513.13;6252890;28;20057;-77
2023/11/13 04:35:33;;;;;;;7.32;2.85;;;;;;;2.98;100.00;100523.41;6252866;28;20080;-78
2023/11/13 04:38:36;;;;;;;4.57;2.28;;;;;;;2.97;100.00;100516.50;6230704;28;20061;-77
2023/11/13 04:41:39;;;;;;;4.75;2.63;;;;;;;2.98;100.00;100512.16;6250828;28;20124;-77
2023/11/13 04:44:40;;;;;;;4.45;2.65;;;;;;;2.99;100.00;100525.09;6252864;28;20053;-77
2023/11/13 04:47:42;;;;;;;5.22;2.80;;;;;;;2.99;100.00;100526.84;6238547;28;20053;-78
2023/11/13 04:50:43;;;;;;;5.30;2.45;;;;;;;3.02;100.00;100525.03;6251924;28;20049;-77
2023/11/13 04:53:44;;;;;;;5.97;2.65;;;;;;;3.05;100.00;100531.91;6252390;28;20057;-77
2023/11/13 04:56:47;;;;;;;4.97;2.75;;;;;;;3.08;100.00;100533.53;6252476;28;20049;-77
2023/11/13 04:59:49;;;;;;;4.70;2.38;;;;;;;3.08;100.00;100533.53;6245541;28;20050;-77
2023/11/13 05:02:50;;;;;;;5.05;2.47;;;;;;;3.12;100.00;100537.78;6227561;28;20054;-77
2023/11/13 05:05:51;;;;;;;5.93;2.50;;;;;;;3.12;100.00;100543.81;6227817;28;20053;-77
2023/11/13 05:08:53;;;;;;;5.90;2.22;;;;;;;3.13;100.00;100536.88;6227816;28;20137;-77
2023/11/13 05:11:57;;;;;;;2.35;1.80;;;;;;;3.18;100.00;100535.88;6235852;28;20053;-77
2023/11/13 05:14:58;;;;;;;6.03;2.65;;;;;;;3.18;100.00;100530.69;6251997;28;20061;-78
2023/11/13 05:18:00;;;;;;;7.60;2.38;;;;;;;3.21;100.00;100540.13;6252054;28;20088;-78
2023/11/13 05:21:02;;;;;;;4.00;2.33;;;;;;;3.23;100.00;100533.16;6251737;28;20187;-77
2023/11/13 05:24:04;;;;;;;5.63;2.42;;;;;;;3.25;100.00;100533.97;6251820;28;20049;-78
2023/11/13 05:27:07;;;;;;;5.15;2.50;;;;;;;3.22;100.00;100534.88;6251670;28;20053;-77
2023/11/13 05:30:09;;;;;;;7.32;2.28;;;;;;;3.22;100.00;100527.09;6247715;28;20057;-78
2023/11/13 05:33:10;;;;;;;3.50;2.13;;;;;;;3.14;100.00;100523.03;6246009;28;20125;-77
2023/11/13 05:36:12;;;;;;;5.28;2.20;;;;;;;3.14;100.00;100516.09;6251193;28;20049;-77
2023/11/13 05:39:13;;;;;;;9.52;2.70;;;;;;;3.15;100.00;100507.41;6251282;28;20361;-78
2023/11/13 05:42:17;;;;;;;7.13;2.97;;;;;;;3.15;100.00;100497.00;6251015;28;20056;-77
2023/11/13 05:45:18;;;;;;;4.35;2.05;;;;;;;3.16;100.00;100493.50;6251386;28;20088;-77
2023/11/13 05:48:20;;;;;;;6.50;2.67;;;;;;;3.20;100.00;100492.53;6251030;28;20045;-77
2023/11/13 05:51:21;;;;;;;3.55;2.40;;;;;;;3.18;100.00;100486.56;6251050;28;20406;-77
2023/11/13 05:54:23;;;;;;;3.60;2.25;;;;;;;3.24;100.00;100475.13;6250867;28;20507;-77
2023/11/13 05:57:25;;;;;;;3.22;2.30;;;;;;;3.26;100.00;100479.38;6250943;28;20369;-77
2023/11/13 06:00:30;;;;;;;3.33;2.10;;;;;;;3.29;100.00;100468.91;6250815;28;20054;-77
2023/11/13 06:03:31;;;;;;;5.05;2.38;;;;;;;3.34;100.00;100450.59;6250935;28;20132;-77
2023/11/13 06:06:32;;;;;;;5.57;2.30;;;;;;;3.36;100.00;100464.41;6250735;28;20064;-77
2023/11/13 06:09:34;;;;;;;6.72;2.22;;;;;;;3.41;100.00;100470.34;6248057;28;20049;-77
2023/11/13 06:12:39;;;;;;;5.55;2.67;;;;;;;3.45;100.00;100471.06;6241576;28;20450;-78
2023/11/13 06:15:41;;;;;;;5.78;2.20;;;;;;;3.48;100.00;100471.84;6243492;28;20046;-77
2023/11/13 06:18:46;;;;;;;3.58;1.90;;;;;;;3.52;100.00;100472.59;6247274;28;20147;-77
2023/11/13 06:21:47;;;;;;;9.25;2.97;;;;;;;3.54;100.00;100474.28;6241318;28;20048;-77
2023/11/13 06:24:49;;;;;;;8.32;2.40;;;;;;;3.51;100.00;100474.38;6250021;28;20060;-78
2023/11/13 06:27:52;;;;;;;8.25;2.55;;;;;;;3.54;100.00;100473.41;6242202;28;20049;-78
2023/11/13 06:30:54;;;;;;;2.70;2.17;;;;;;;3.55;100.00;100473.38;6250546;28;20144;-78
2023/11/13 06:33:55;;;;;;;4.65;2.88;;;;;;;3.56;100.00;100463.84;6241921;28;20049;-78
2023/11/13 06:36:57;;;;;;;6.00;2.40;;;;;;;3.59;100.00;100450.75;6250335;28;20056;-78
2023/11/13 06:39:58;;;;;;;5.15;2.08;;;;;;;3.60;100.00;100433.44;6250319;28;20056;-78
2023/11/13 06:43:01;;;;;;;5.45;2.95;;;;;;;3.54;100.00;100434.44;6250106;28;20062;-77
2023/11/13 06:46:03;;;;;;;7.93;2.42;;;;;;;3.50;100.00;100431.09;6250545;28;20049;-77
2023/11/13 06:49:04;;;;;;;5.82;2.58;;;;;;;3.47;100.00;100432.94;6250084;28;20056;-78
2023/11/13 06:52:06;;;;;;;4.90;2.63;;;;;;;3.45;100.00;100432.09;6250160;28;20057;-78
2023/11/13 06:55:13;;;;;;;4.70;2.55;;;;;;;3.43;100.00;100424.38;6250210;28;20045;-78
2023/11/13 06:58:15;;;;;;;7.68;2.63;;;;;;;3.48;100.00;100421.63;6250320;28;20064;-77
2023/11/13 07:01:18;;;;;;;4.97;2.28;;;;;;;3.51;100.00;100424.16;6241493;28;20042;-77
2023/11/13 07:04:20;;;;;;;6.80;2.72;;;;;;;3.54;100.00;100434.44;6249849;28;20357;-77
2023/11/13 07:07:21;;;;;;;6.22;2.65;;;;;;;3.61;100.00;100419.53;6240415;28;20089;-77
2023/11/13 07:10:26;;;;;;;11.13;2.80;;;;;;;3.64;100.00;100428.09;6211923;28;20061;-77
2023/11/13 07:13:29;;;;;;;4.50;2.60;;;;;;;3.67;100.00;100420.19;6202417;28;20466;-77
2023/11/13 07:16:31;;;;;;;5.22;2.97;;;;;;;3.72;100.00;100425.25;6206667;28;20050;-77
2023/11/13 07:19:34;;;;;;;9.40;3.50;;;;;;;3.72;100.00;100428.69;6213401;28;20342;-77
2023/11/13 07:22:36;;;;;;;5.90;3.38;;;;;;;3.74;100.00;100421.72;6211784;28;20180;-77
2023/11/13 07:25:37;;;;;;;7.63;2.53;;;;;;;3.78;100.00;100417.28;6210955;28;20050;-77
2023/11/13 07:28:40;;;;;;;6.72;3.38;;;;;;;3.80;100.00;100434.50;6213633;28;20363;-77
2023/11/13 07:31:43;;;;;;;6.07;2.70;;;;;;;3.84;100.00;100437.88;6219383;28;20042;-77
2023/11/13 07:34:44;;;;;;;7.90;2.88;;;;;;;3.87;100.00;100444.75;6225462;28;20572;-77
2023/11/13 07:37:45;;;;;;;8.23;3.25;;;;;;;3.91;100.00;100444.59;6222167;28;20046;-77
2023/11/13 07:40:47;;;;;;;9.93;3.22;;;;;;;3.95;100.00;100438.41;6228510;28;20234;-77
2023/11/13 07:43:54;;;;;;;6.90;2.97;;;;;;;4.02;100.00;100439.06;6221041;28;20053;-77
2023/11/13 07:46:55;;;;;;;4.43;2.58;;;;;;;4.03;100.00;100427.75;6223050;28;20050;-77
2023/11/13 07:49:57;;;;;;;4.68;2.33;;;;;;;4.08;100.00;100429.28;6266844;22;20077;-73
2023/11/13 07:52:59;;;;;;;9.93;3.75;;;;;;;4.12;100.00;100421.41;6252408;28;20093;-73
2023/11/13 07:56:01;;;;;;;8.65;3.67;;;;;;;4.16;100.00;100416.06;6254104;28;20046;-72
2023/11/13 07:59:07;;;;;;;7.25;2.85;;;;;;;4.25;100.00;100396.72;6253054;28;20053;-72
2023/11/13 08:02:09;;;;;;;6.15;2.88;;;;;;;4.23;100.00;100390.72;6250022;28;20388;-72
2023/11/13 08:05:11;;;;;;;7.22;3.25;;;;;;;4.24;100.00;100401.06;6252829;28;20350;-72
2023/11/13 08:08:14;;;;;;;8.68;3.50;;;;;;;4.28;100.00;100391.41;6252891;28;20058;-72
2023/11/13 08:11:17;;;;;;;6.30;3.17;;;;;;;4.30;100.00;100371.41;6253274;28;20357;-73
2023/11/13 08:14:23;;;;;;;5.93;3.17;;;;;;;4.32;100.00;100369.59;6253452;28;20055;-72
2023/11/13 08:17:24;;;;;;;6.65;3.15;;;;;;;4.37;100.00;100364.25;6251963;28;20053;-72
2023/11/13 08:20:26;;;;;;;9.82;3.90;;;;;;;4.36;100.00;100350.41;6248757;28;20053;-72
2023/11/13 08:23:28;;;;;;;6.50;3.50;;;;;;;4.40;100.00;100348.50;6252865;28;20466;-73
2023/11/13 08:26:32;;;;;;;9.50;4.40;;;;;;;4.41;100.00;100335.47;6253298;28;20049;-73
2023/11/13 08:29:35;;;;;;;7.80;3.53;;;;;;;4.48;100.00;100328.28;6253065;28;20046;-72
2023/11/13 08:32:36;;;;;;;9.57;3.72;;;;;;;4.51;100.00;100317.78;6252802;28;20046;-73
2023/11/13 08:35:38;;;;;;;8.02;3.58;;;;;;;4.56;100.00;100321.06;6253003;28;20438;-73
2023/11/13 08:38:40;;;;;;;7.07;3.58;;;;;;;4.67;100.00;100318.06;6250050;28;20172;-73
2023/11/13 08:41:41;;;;;;;10.48;4.80;;;;;;;4.67;100.00;100307.66;6251477;28;20337;-73
2023/11/13 08:44:44;;;;;;;8.88;4.30;;;;;;;4.72;100.00;100303.97;6248540;28;20365;-73
2023/11/13 08:47:47;;;;;;;11.80;4.22;;;;;;;4.82;100.00;100296.72;6251389;28;20052;-73
2023/11/13 08:50:48;;;;;;;9.93;4.65;;;;;;;4.91;100.00;100287.72;6251915;28;20056;-73
2023/11/13 08:53:50;;;;;;;10.30;4.28;;;;;;;4.91;100.00;100285.97;6251982;28;20046;-73
2023/11/13 08:56:53;;;;;;;15.75;5.32;;;;;;;4.98;100.00;100281.34;6250702;28;20505;-74
2023/11/13 08:59:55;;;;;;;10.18;4.63;;;;;;;5.02;100.00;100270.75;6252281;28;20049;-73
2023/11/13 09:02:57;;;;;;;7.65;4.68;;;;;;;5.13;100.00;100269.50;6252059;28;20129;-73
2023/11/13 09:05:58;;;;;;;10.18;5.75;;;;;;;5.22;100.00;100262.19;6252268;28;20057;-73
2023/11/13 09:09:01;;;;;;;10.15;4.40;;;;;;;5.31;100.00;100258.34;6251587;28;20048;-73
2023/11/13 09:12:04;;;;;;;8.75;4.95;;;;;;;5.38;100.00;100243.34;6252003;28;20132;-73
2023/11/13 09:15:11;;;;;;;10.85;4.32;;;;;;;5.33;100.00;100240.94;6251785;28;20136;-74
2023/11/13 09:18:14;;;;;;;10.80;4.72;;;;;;;5.33;100.00;100243.53;6251978;28;20385;-74
2023/11/13 09:21:17;;;;;;;10.30;4.22;;;;;;;5.35;100.00;100236.50;6251918;28;20049;-74
2023/11/13 09:24:19;;;;;;;14.73;6.38;;;;;;;5.42;100.00;100227.53;6251730;28;20060;-73
2023/11/13 09:27:20;;;;;;;10.85;5.18;;;;;;;5.54;100.00;100229.66;6252000;28;20050;-74
2023/11/13 09:30:23;;;;;;;8.85;4.47;;;;;;;5.69;100.00;100240.34;6251576;28;20049;-74
2023/11/13 09:33:28;;;;;;;10.98;4.95;;;;;;;5.81;100.00;100251.13;6251644;28;20084;-74
2023/11/13 09:36:32;;;;;;;9.23;4.95;;;;;;;5.94;100.00;100259.28;6251324;28;20053;-74
2023/11/13 09:39:38;;;;;;;10.40;4.80;;;;;;;5.99;100.00;100248.66;6251611;28;20049;-74
2023/11/13 09:42:42;;;;;;;12.27;5.18;;;;;;;6.00;100.00;100246.00;6251310;28;20151;-73
2023/11/13 09:45:46;;;;;;;12.23;6.22;;;;;;;6.00;100.00;100243.41;6251481;28;20053;-74
2023/11/13 09:48:51;;;;;;;13.00;4.72;;;;;;;6.02;100.00;100230.28;6250995;28;20136;-73
2023/11/13 09:51:54;;;;;;;15.07;5.47;;;;;;;6.06;100.00;100222.25;6251366;28;20053;-74
2023/11/13 09:54:56;;;;;;;11.38;5.60;;;;;;;6.05;100.00;100210.13;6251046;28;20354;-73
2023/11/13 09:58:00;;;;;;;12.35;5.03;;;;;;;6.07;100.00;100215.28;6250432;28;20055;-73
2023/11/13 10:01:04;;;;;;;12.27;4.75;;;;;;;6.11;100.00;100203.81;6251147;28;20056;-73
2023/11/13 10:04:06;;;;;;;16.23;5.13;;;;;;;6.09;100.00;100210.88;6250891;28;20053;-73
2023/11/13 10:07:10;;;;;;;12.35;5.47;;;;;;;6.13;100.00;100208.94;6246364;28;20124;-70
2023/11/13 10:10:17;;;;;;;9.68;5.05;;;;;;;6.17;100.00;100211.34;6248632;28;20073;-71
2023/11/13 10:13:23;;;;;;;9.63;5.25;;;;;;;6.22;100.00;100204.19;6245540;28;20986;-70
2023/11/13 10:16:27;;;;;;;11.15;5.20;;;;;;;6.23;100.00;100194.59;6250564;28;20049;-72
2023/11/13 10:19:29;;;;;;;14.65;5.15;;;;;;;6.28;100.00;100183.03;6245717;28;20128;-73
2023/11/13 10:22:31;;;;;;;15.85;5.18;;;;;;;6.29;100.00;100186.50;6245426;28;20038;-70
2023/11/13 10:25:42;;;;;;;11.02;5.28;;;;;;;6.32;100.00;100178.53;6246463;28;20057;-71
2023/11/13 10:28:45;;;;;;;12.13;5.35;;;;;;;6.31;100.00;100177.69;6249488;28;20038;-71
2023/11/13 10:31:52;;;;;;;16.20;6.38;;;;;;;6.29;100.00;100174.28;6237794;28;20048;-73
2023/11/13 10:34:54;;;;;;;11.73;5.80;;;;;;;6.26;100.00;100166.59;6243726;28;20049;-73
2023/11/13 10:37:56;;;;;;;13.90;5.05;;;;;;;6.28;100.00;100158.72;6249820;28;20058;-74
2023/11/13 10:41:00;;;;;;;11.88;5.70;;;;;;;6.25;100.00;100158.84;6250404;28;20049;-73
2023/11/13 10:44:20;;;;;;;14.77;6.03;;;;;;;6.21;100.00;100152.91;6250335;28;20188;-73
2023/11/13 10:47:25;;;;;;;20.48;6.57;;;;;;;6.13;100.00;100146.34;6252120;28;20061;-72
2023/11/13 10:50:26;;;;;;;16.33;5.82;;;;;;;6.06;100.00;100130.97;6259157;28;20053;-72
2023/11/13 10:53:29;;;;;;;12.63;5.90;;;;;;;6.06;100.00;100120.53;6245294;28;20131;-74
2023/11/13 10:56:33;;;;;;;14.10;6.28;;;;;;;6.06;100.00;100117.09;6250320;28;20053;-72
2023/11/13 10:59:34;;;;;;;13.10;5.95;;;;;;;6.06;100.00;100110.09;6250097;28;20050;-72
2023/11/13 11:02:44;;;;;;;10.48;5.82;;;;;;;6.06;100.00;100112.72;6249362;28;20354;-72
2023/11/13 11:05:49;;;;;;;14.52;5.82;;;;;;;6.06;100.00;100096.22;6248181;28;20135;-72
2023/11/13 11:08:51;;;;;;;10.63;5.70;;;;;;;6.07;100.00;100085.69;6249908;28;20172;-73
2023/11/13 11:11:53;;;;;;;16.25;5.82;;;;;;;6.05;100.00;100079.72;6254748;28;20049;-74
2023/11/13 11:15:15;;;;;;;12.60;6.50;;;;;;;6.01;100.00;100082.53;6249092;28;20446;-75
2023/11/13 11:18:27;;;;;;;9.48;5.32;;;;;;;6.04;100.00;100079.78;6249219;28;20429;-75
2023/11/13 11:21:40;;;;;;;10.90;5.65;;;;;;;6.02;100.00;100072.03;6254566;28;20175;-75
2023/11/13 11:25:04;;;;;;;15.82;6.57;;;;;;;6.03;100.00;100054.63;6246381;28;20070;-74
2023/11/13 11:28:05;;;;;;;12.55;6.28;;;;;;;6.09;100.00;100036.94;6230169;28;20050;-76
2023/11/13 11:31:43;;;;;;;14.27;6.78;;;;;;;6.11;100.00;100031.63;6247142;28;20049;-74
2023/11/13 11:34:51;;;;;;;13.20;5.20;;;;;;;6.08;100.00;100016.97;6254574;28;20198;-74
2023/11/13 11:38:17;;;;;;;11.65;4.82;;;;;;;6.07;100.00;100012.66;6254340;28;20050;-74
2023/11/13 11:41:40;;;;;;;13.05;5.57;;;;;;;6.04;100.00;99999.78;6254221;28;20049;-74
2023/11/13 11:44:48;;;;;;;12.07;5.45;;;;;;;6.07;100.00;99985.75;6254301;28;20099;-75
2023/11/13 11:47:54;;;;;;;13.13;5.80;;;;;;;6.08;100.00;99992.66;6253644;28;20361;-75
2023/11/13 11:50:58;;;;;;;12.55;6.22;;;;;;;6.09;100.00;99984.78;6254160;28;20441;-73
2023/11/13 11:54:00;;;;;;;10.68;5.90;;;;;;;6.10;100.00;99969.97;6253801;28;20045;-74
2023/11/13 11:57:03;;;;;;;14.70;6.22;;;;;;;6.09;100.00;99960.44;6254015;28;20061;-73
2023/11/13 12:00:06;;;;;;;8.30;4.57;;;;;;;6.17;100.00;99958.28;6253532;28;20354;-73
2023/11/13 12:03:08;;;;;;;11.90;4.63;;;;;;;6.14;100.00;99942.81;6252968;28;20045;-73
2023/11/13 12:06:10;;;;;;;18.00;5.05;;;;;;;6.17;100.00;99933.97;6252763;28;20052;-74
2023/11/13 12:09:12;;;;;;;9.05;5.03;;;;;;;6.16;100.00;99933.13;6255498;28;20052;-73
2023/11/13 12:12:13;;;;;;;13.15;5.82;;;;;;;6.20;100.00;99913.81;6253326;28;20052;-73
2023/11/13 12:15:15;;;;;;;12.23;5.22;;;;;;;6.28;100.00;99901.25;6253405;28;20088;-74
2023/11/13 12:18:17;;;;;;;10.90;5.03;;;;;;;6.38;100.00;99891.19;6253100;28;20686;-73
2023/11/13 12:21:20;;;;;;;11.65;5.20;;;;;;;6.46;100.00;99878.59;6251850;28;20473;-73
2023/11/13 12:24:22;;;;;;;10.23;4.60;;;;;;;6.52;100.00;99869.63;6252236;28;20076;-72
2023/11/13 12:27:25;;;;;;;7.95;4.40;;;;;;;6.58;100.00;99862.31;6252194;28;20064;-71
2023/11/13 12:30:26;;;;;;;8.95;4.43;;;;;;;6.65;100.00;99847.19;6252432;28;20056;-74
2023/11/13 12:33:28;;;;;;;10.88;5.22;;;;;;;6.74;100.00;99832.81;6250717;28;20419;-73
2023/11/13 12:36:31;;;;;;;8.63;4.70;;;;;;;6.80;100.00;99822.03;6252734;28;20140;-74
2023/11/13 12:39:33;;;;;;;10.48;4.43;;;;;;;6.85;100.00;99826.09;6249766;28;20042;-73
2023/11/13 12:42:34;;;;;;;11.25;5.47;;;;;;;6.91;100.00;99821.50;6252634;28;20048;-72
2023/11/13 12:45:36;;;;;;;10.02;4.72;;;;;;;6.91;100.00;99814.50;6252389;28;20060;-74
2023/11/13 12:48:37;;;;;;;8.82;4.68;;;;;;;6.90;100.00;99798.88;6252319;28;20461;-75
2023/11/13 12:51:41;;;;;;;7.28;3.55;;;;;;;6.92;100.00;99802.28;6252397;28;20054;-74
2023/11/13 12:54:43;;;;;;;9.40;3.60;;;;;;;6.90;100.00;99793.66;6252528;28;20045;-75
2023/11/13 12:57:45;;;;;;;8.93;4.47;;;;;;;6.94;100.00;99789.97;6252645;28;20049;-75
2023/11/13 13:00:46;;;;;;;6.45;3.65;;;;;;;6.94;100.00;99788.19;6252223;28;20057;-74
2023/11/13 13:03:48;;;;;;;7.75;4.45;;;;;;;6.88;100.00;99775.47;6252594;28;20045;-74
2023/11/13 13:06:55;;;;;;;9.02;3.88;;;;;;;6.86;100.00;99756.44;6247830;28;20060;-74
2023/11/13 13:09:57;;;;;;;10.07;4.60;;;;;;;6.86;100.00;99746.00;6251892;28;20045;-75
2023/11/13 13:12:59;;;;;;;6.32;3.83;;;;;;;6.84;100.00;99738.22;6251772;28;20079;-75
2023/11/13 13:16:01;;;;;;;7.57;4.13;;;;;;;6.84;100.00;99738.22;6252046;28;20053;-75
2023/11/13 13:19:02;;;;;;;7.50;4.32;;;;;;;6.85;100.00;99723.41;6251749;28;20434;-74
2023/11/13 13:22:06;;;;;;;14.20;3.95;;;;;;;6.84;100.00;99713.88;6251437;28;20408;-73
2023/11/13 13:25:08;;;;;;;8.95;3.83;;;;;;;6.80;100.00;99704.53;6251673;28;20139;-74
2023/11/13 13:28:11;;;;;;;11.68;4.10;;;;;;;6.83;100.00;99689.56;6251444;28;20438;-73
2023/11/13 13:31:12;;;;;;;8.27;4.10;;;;;;;6.76;100.00;99669.91;6251617;28;20061;-75
2023/11/13 13:34:14;;;;;;;10.13;3.67;;;;;;;6.82;100.00;99653.09;6246135;28;20473;-76
2023/11/13 13:37:17;;;;;;;6.78;3.55;;;;;;;6.80;100.00;99627.03;6249375;28;20055;-74
2023/11/13 13:40:21;;;;;;;8.23;4.10;;;;;;;6.84;100.00;99612.88;6251043;28;20183;-74
2023/11/13 13:43:23;;;;;;;6.82;3.63;;;;;;;6.84;100.00;99594.59;6251094;28;20049;-73
2023/11/13 13:46:26;;;;;;;8.27;3.40;;;;;;;6.86;100.00;99587.53;6251185;28;20045;-75
2023/11/13 13:49:31;;;;;;;6.47;3.25;;;;;;;6.93;100.00;99576.75;6250297;28;20060;-75
2023/11/13 13:52:35;;;;;;;6.10;3.38;;;;;;;6.92;100.00;99548.94;6250858;28;20045;-73
2023/11/13 13:55:38;;;;;;;10.32;4.00;;;;;;;6.91;100.00;99522.00;6251298;28;20052;-73
2023/11/13 13:58:40;;;;;;;8.32;3.60;;;;;;;6.90;100.00;99488.13;6251080;28;20176;-73
2023/11/13 14:01:42;;;;;;;5.78;2.80;;;;;;;6.93;100.00;99514.06;6250894;28;20073;-74
2023/11/13 14:04:44;;;;;;;6.57;3.60;;;;;;;6.93;100.00;99493.16;6250932;28;20041;-74
2023/11/13 14:07:47;;;;;;;4.97;2.60;;;;;;;6.98;100.00;99470.22;6250466;28;20511;-73
2023/11/13 14:10:49;;;;;;;10.00;3.42;;;;;;;6.98;100.00;99475.47;6250885;28;20049;-74